sensor_id;sensor_type;location;lat;lon;timestamp;temperature;humidity
29007;DHT22;16104;48.642;9.008;2023-03-04T00:04:09;4.80;56.00
29007;DHT22;16104;48.642;9.008;2023-03-04T00:09:04;4.80;56.00
29007;DHT22;16104;48.642;9.008;2023-03-04T00:14:00;4.80;56.20
29007;DHT22;16104;48.642;9.008;2023-03-04T00:18:56;4.70;56.20
29007;DHT22;16104;48.642;9.008;2023-03-04T00:23:52;4.70;56.20
29007;DHT22;16104;48.642;9.008;2023-03-04T00:28:47;4.70;56.20
29007;DHT22;16104;48.642;9.008;2023-03-04T00:33:43;4.60;56.20
29007;DHT22;16104;48.642;9.008;2023-03-04T00:38:38;4.60;56.10
29007;DHT22;16104;48.642;9.008;2023-03-04T00:43:34;4.50;56.20
29007;DHT22;16104;48.642;9.008;2023-03-04T00:48:29;4.40;56.20
29007;DHT22;16104;48.642;9.008;2023-03-04T00:53:25;4.40;56.30
29007;DHT22;16104;48.642;9.008;2023-03-04T00:58:20;4.30;56.30
29007;DHT22;16104;48.642;9.008;2023-03-04T02:04:23;3.50;57.20
29007;DHT22;16104;48.642;9.008;2023-03-04T02:09:20;3.40;57.40
29007;DHT22;16104;48.642;9.008;2023-03-04T02:14:16;3.40;57.50
29007;DHT22;16104;48.642;9.008;2023-03-04T03:05:00;3.10;58.60
29007;DHT22;16104;48.642;9.008;2023-03-04T03:09:56;3.10;58.70
29007;DHT22;16104;48.642;9.008;2023-03-04T03:14:51;3.10;58.70
29007;DHT22;16104;48.642;9.008;2023-03-04T04:01:24;3.00;59.50
29007;DHT22;16104;48.642;9.008;2023-03-04T04:06:20;3.00;59.20
29007;DHT22;16104;48.642;9.008;2023-03-04T04:11:15;2.90;59.20
29007;DHT22;16104;48.642;9.008;2023-03-04T04:16:11;2.90;59.10
29007;DHT22;16104;48.642;9.008;2023-03-04T04:21:06;2.90;59.10
29007;DHT22;16104;48.642;9.008;2023-03-04T04:26:02;2.90;59.10
29007;DHT22;16104;48.642;9.008;2023-03-04T04:30:58;2.80;59.10
29007;DHT22;16104;48.642;9.008;2023-03-04T04:35:53;2.80;59.90
29007;DHT22;16104;48.642;9.008;2023-03-04T04:40:49;2.70;59.20
29007;DHT22;16104;48.642;9.008;2023-03-04T04:45:45;2.70;59.20
29007;DHT22;16104;48.642;9.008;2023-03-04T04:50:40;2.70;59.30
29007;DHT22;16104;48.642;9.008;2023-03-04T04:55:36;2.60;59.20
29007;DHT22;16104;48.642;9.008;2023-03-04T05:00:31;2.60;59.20
29007;DHT22;16104;48.642;9.008;2023-03-04T05:05:27;2.50;59.20
29007;DHT22;16104;48.642;9.008;2023-03-04T05:10:22;2.40;59.20
29007;DHT22;16104;48.642;9.008;2023-03-04T05:15:18;2.40;59.20
29007;DHT22;16104;48.642;9.008;2023-03-04T05:20:13;2.30;59.60
29007;DHT22;16104;48.642;9.008;2023-03-04T05:25:09;2.20;59.40
29007;DHT22;16104;48.642;9.008;2023-03-04T05:30:05;2.20;59.50
29007;DHT22;16104;48.642;9.008;2023-03-04T05:35:01;2.10;59.50
29007;DHT22;16104;48.642;9.008;2023-03-04T05:39:56;2.10;59.40
29007;DHT22;16104;48.642;9.008;2023-03-04T05:44:52;2.00;60.10
29007;DHT22;16104;48.642;9.008;2023-03-04T05:49:47;1.90;59.50
29007;DHT22;16104;48.642;9.008;2023-03-04T05:54:43;1.90;59.60
29007;DHT22;16104;48.642;9.008;2023-03-04T05:59:38;1.80;59.90
29007;DHT22;16104;48.642;9.008;2023-03-04T06:04:34;1.80;60.00
29007;DHT22;16104;48.642;9.008;2023-03-04T06:09:29;1.80;60.10
29007;DHT22;16104;48.642;9.008;2023-03-04T06:14:25;1.70;60.10
29007;DHT22;16104;48.642;9.008;2023-03-04T06:19:20;1.70;60.30
29007;DHT22;16104;48.642;9.008;2023-03-04T06:24:16;1.70;60.30
29007;DHT22;16104;48.642;9.008;2023-03-04T06:29:11;1.70;60.30
29007;DHT22;16104;48.642;9.008;2023-03-04T06:34:08;1.60;60.30
29007;DHT22;16104;48.642;9.008;2023-03-04T06:39:05;1.60;60.40
29007;DHT22;16104;48.642;9.008;2023-03-04T06:44:01;1.70;61.40
29007;DHT22;16104;48.642;9.008;2023-03-04T06:48:57;1.70;60.60
29007;DHT22;16104;48.642;9.008;2023-03-04T06:53:53;1.70;60.80
29007;DHT22;16104;48.642;9.008;2023-03-04T06:58:48;1.70;60.80
29007;DHT22;16104;48.642;9.008;2023-03-04T07:03:44;1.70;60.80
29007;DHT22;16104;48.642;9.008;2023-03-04T07:08:40;1.80;61.00
29007;DHT22;16104;48.642;9.008;2023-03-04T07:13:36;1.80;61.10
29007;DHT22;16104;48.642;9.008;2023-03-04T07:18:35;1.80;61.30
29007;DHT22;16104;48.642;9.008;2023-03-04T07:23:31;1.90;61.50
29007;DHT22;16104;48.642;9.008;2023-03-04T07:28:27;1.90;61.70
29007;DHT22;16104;48.642;9.008;2023-03-04T07:33:22;2.00;62.00
29007;DHT22;16104;48.642;9.008;2023-03-04T07:38:18;2.10;62.20
29007;DHT22;16104;48.642;9.008;2023-03-04T07:43:13;2.20;62.40
29007;DHT22;16104;48.642;9.008;2023-03-04T07:48:09;2.20;63.50
29007;DHT22;16104;48.642;9.008;2023-03-04T07:53:04;2.30;62.40
29007;DHT22;16104;48.642;9.008;2023-03-04T07:57:59;2.40;62.50
29007;DHT22;16104;48.642;9.008;2023-03-04T08:02:55;2.50;62.60
29007;DHT22;16104;48.642;9.008;2023-03-04T08:07:51;2.50;62.80
29007;DHT22;16104;48.642;9.008;2023-03-04T08:12:46;2.60;62.80
29007;DHT22;16104;48.642;9.008;2023-03-04T08:17:42;2.60;62.70
29007;DHT22;16104;48.642;9.008;2023-03-04T08:22:37;2.60;62.80
29007;DHT22;16104;48.642;9.008;2023-03-04T08:27:33;2.70;62.30
29007;DHT22;16104;48.642;9.008;2023-03-04T08:32:28;2.70;63.20
29007;DHT22;16104;48.642;9.008;2023-03-04T08:37:24;2.70;62.70
29007;DHT22;16104;48.642;9.008;2023-03-04T08:42:20;2.70;62.50
29007;DHT22;16104;48.642;9.008;2023-03-04T08:47:15;2.80;62.60
29007;DHT22;16104;48.642;9.008;2023-03-04T08:52:11;2.80;62.80
29007;DHT22;16104;48.642;9.008;2023-03-04T08:57:06;2.90;63.00
29007;DHT22;16104;48.642;9.008;2023-03-04T09:02:02;2.90;63.10
29007;DHT22;16104;48.642;9.008;2023-03-04T09:06:57;3.00;63.10
29007;DHT22;16104;48.642;9.008;2023-03-04T09:11:53;3.00;63.10
29007;DHT22;16104;48.642;9.008;2023-03-04T09:16:48;3.10;63.10
29007;DHT22;16104;48.642;9.008;2023-03-04T09:21:44;3.10;62.70
29007;DHT22;16104;48.642;9.008;2023-03-04T09:26:39;3.20;62.40
29007;DHT22;16104;48.642;9.008;2023-03-04T09:31:35;3.20;62.40
29007;DHT22;16104;48.642;9.008;2023-03-04T09:36:30;3.30;62.80
29007;DHT22;16104;48.642;9.008;2023-03-04T09:46:34;3.40;62.80
29007;DHT22;16104;48.642;9.008;2023-03-04T09:51:43;3.50;62.50
29007;DHT22;16104;48.642;9.008;2023-03-04T09:56:40;3.50;62.50
29007;DHT22;16104;48.642;9.008;2023-03-04T10:01:46;3.60;62.30
29007;DHT22;16104;48.642;9.008;2023-03-04T10:06:44;3.60;62.40
29007;DHT22;16104;48.642;9.008;2023-03-04T10:11:48;3.70;61.50
29007;DHT22;16104;48.642;9.008;2023-03-04T10:16:51;3.80;61.40
29007;DHT22;16104;48.642;9.008;2023-03-04T10:21:48;3.90;61.60
29007;DHT22;16104;48.642;9.008;2023-03-04T10:26:47;4.00;61.50
29007;DHT22;16104;48.642;9.008;2023-03-04T10:31:44;4.10;61.10
29007;DHT22;16104;48.642;9.008;2023-03-04T10:42:01;4.40;61.30
29007;DHT22;16104;48.642;9.008;2023-03-04T10:46:58;4.50;60.80
29007;DHT22;16104;48.642;9.008;2023-03-04T10:52:01;4.60;60.20
29007;DHT22;16104;48.642;9.008;2023-03-04T10:56:58;4.80;60.20
29007;DHT22;16104;48.642;9.008;2023-03-04T11:01:54;4.90;59.80
29007;DHT22;16104;48.642;9.008;2023-03-04T11:06:50;5.00;59.60
29007;DHT22;16104;48.642;9.008;2023-03-04T11:11:46;5.10;59.30
29007;DHT22;16104;48.642;9.008;2023-03-04T11:16:55;5.20;59.30
29007;DHT22;16104;48.642;9.008;2023-03-04T11:21:51;5.30;59.30
29007;DHT22;16104;48.642;9.008;2023-03-04T12:03:21;6.10;57.20
29007;DHT22;16104;48.642;9.008;2023-03-04T12:34:58;6.60;55.70
29007;DHT22;16104;48.642;9.008;2023-03-04T12:45:21;6.80;55.70
29007;DHT22;16104;48.642;9.008;2023-03-04T12:55:39;6.90;55.40
29007;DHT22;16104;48.642;9.008;2023-03-04T13:00:51;6.90;55.10
29007;DHT22;16104;48.642;9.008;2023-03-04T13:06:04;7.00;55.10
29007;DHT22;16104;48.642;9.008;2023-03-04T13:21:58;7.30;54.80
29007;DHT22;16104;48.642;9.008;2023-03-04T13:26:54;7.30;54.60
29007;DHT22;16104;48.642;9.008;2023-03-04T13:36:58;7.50;53.70
29007;DHT22;16104;48.642;9.008;2023-03-04T13:41:54;7.50;53.90
29007;DHT22;16104;48.642;9.008;2023-03-04T13:46:51;7.50;54.00
29007;DHT22;16104;48.642;9.008;2023-03-04T13:51:47;7.50;54.10
29007;DHT22;16104;48.642;9.008;2023-03-04T13:57:17;7.60;53.90
29007;DHT22;16104;48.642;9.008;2023-03-04T14:02:17;7.60;54.30
29007;DHT22;16104;48.642;9.008;2023-03-04T14:07:23;7.60;53.30
29007;DHT22;16104;48.642;9.008;2023-03-04T14:12:19;7.60;53.40
29007;DHT22;16104;48.642;9.008;2023-03-04T14:17:25;7.60;53.80
29007;DHT22;16104;48.642;9.008;2023-03-04T14:22:31;7.70;53.60
29007;DHT22;16104;48.642;9.008;2023-03-04T14:27:29;7.80;53.30
29007;DHT22;16104;48.642;9.008;2023-03-04T14:32:25;7.80;53.00
29007;DHT22;16104;48.642;9.008;2023-03-04T14:37:53;7.70;52.90
29007;DHT22;16104;48.642;9.008;2023-03-04T14:43:02;7.60;52.30
29007;DHT22;16104;48.642;9.008;2023-03-04T14:48:04;7.50;52.30
29007;DHT22;16104;48.642;9.008;2023-03-04T14:58:07;7.20;52.50
29007;DHT22;16104;48.642;9.008;2023-03-04T15:03:16;7.10;52.60
29007;DHT22;16104;48.642;9.008;2023-03-04T15:08:21;7.00;52.90
29007;DHT22;16104;48.642;9.008;2023-03-04T15:13:39;6.90;53.00
29007;DHT22;16104;48.642;9.008;2023-03-04T15:18:35;6.80;53.00
29007;DHT22;16104;48.642;9.008;2023-03-04T15:23:32;6.80;53.40
29007;DHT22;16104;48.642;9.008;2023-03-04T15:28:33;6.70;53.40
29007;DHT22;16104;48.642;9.008;2023-03-04T15:33:28;6.70;53.50
29007;DHT22;16104;48.642;9.008;2023-03-04T15:38:25;6.60;53.50
29007;DHT22;16104;48.642;9.008;2023-03-04T15:43:21;6.50;53.60
29007;DHT22;16104;48.642;9.008;2023-03-04T15:48:18;6.40;53.70
29007;DHT22;16104;48.642;9.008;2023-03-04T15:58:17;6.20;54.20
29007;DHT22;16104;48.642;9.008;2023-03-04T16:03:18;6.10;54.30
29007;DHT22;16104;48.642;9.008;2023-03-04T16:08:17;6.10;54.50
29007;DHT22;16104;48.642;9.008;2023-03-04T16:13:15;6.00;54.60
29007;DHT22;16104;48.642;9.008;2023-03-04T16:18:11;6.00;54.60
29007;DHT22;16104;48.642;9.008;2023-03-04T16:23:14;5.90;54.70
29007;DHT22;16104;48.642;9.008;2023-03-04T16:28:11;5.90;54.90
29007;DHT22;16104;48.642;9.008;2023-03-04T16:33:07;5.80;54.80
29007;DHT22;16104;48.642;9.008;2023-03-04T16:38:18;5.80;54.90
29007;DHT22;16104;48.642;9.008;2023-03-04T16:43:15;5.70;55.10
29007;DHT22;16104;48.642;9.008;2023-03-04T16:48:11;5.60;55.10
29007;DHT22;16104;48.642;9.008;2023-03-04T16:53:33;5.60;55.30
29007;DHT22;16104;48.642;9.008;2023-03-04T16:58:30;5.60;55.60
29007;DHT22;16104;48.642;9.008;2023-03-04T17:03:25;5.50;55.50
29007;DHT22;16104;48.642;9.008;2023-03-04T17:08:21;5.50;55.60
29007;DHT22;16104;48.642;9.008;2023-03-04T17:13:16;5.50;55.80
29007;DHT22;16104;48.642;9.008;2023-03-04T17:18:12;5.50;55.80
29007;DHT22;16104;48.642;9.008;2023-03-04T17:23:07;5.50;55.90
29007;DHT22;16104;48.642;9.008;2023-03-04T17:28:03;5.40;56.00
29007;DHT22;16104;48.642;9.008;2023-03-04T17:32:59;5.40;56.00
29007;DHT22;16104;48.642;9.008;2023-03-04T17:37:54;5.40;56.20
29007;DHT22;16104;48.642;9.008;2023-03-04T17:42:50;5.40;56.30
29007;DHT22;16104;48.642;9.008;2023-03-04T17:47:45;5.30;56.40
29007;DHT22;16104;48.642;9.008;2023-03-04T17:52:41;5.30;56.50
29007;DHT22;16104;48.642;9.008;2023-03-04T17:57:37;5.40;56.60
29007;DHT22;16104;48.642;9.008;2023-03-04T18:02:32;5.40;56.70
29007;DHT22;16104;48.642;9.008;2023-03-04T18:07:28;5.40;56.80
29007;DHT22;16104;48.642;9.008;2023-03-04T18:12:23;5.40;57.40
29007;DHT22;16104;48.642;9.008;2023-03-04T18:17:19;5.40;56.80
29007;DHT22;16104;48.642;9.008;2023-03-04T18:22:15;5.40;56.90
29007;DHT22;16104;48.642;9.008;2023-03-04T18:27:10;5.40;56.80
29007;DHT22;16104;48.642;9.008;2023-03-04T18:32:06;5.50;56.90
29007;DHT22;16104;48.642;9.008;2023-03-04T18:37:01;5.50;56.90
29007;DHT22;16104;48.642;9.008;2023-03-04T18:41:57;5.50;57.00
29007;DHT22;16104;48.642;9.008;2023-03-04T18:46:55;5.50;57.00
29007;DHT22;16104;48.642;9.008;2023-03-04T18:51:51;5.50;57.10
29007;DHT22;16104;48.642;9.008;2023-03-04T18:56:55;5.50;57.10
29007;DHT22;16104;48.642;9.008;2023-03-04T19:01:52;5.50;57.20
29007;DHT22;16104;48.642;9.008;2023-03-04T19:06:48;5.50;57.20
29007;DHT22;16104;48.642;9.008;2023-03-04T19:11:44;5.50;57.20
29007;DHT22;16104;48.642;9.008;2023-03-04T19:16:39;5.50;57.20
29007;DHT22;16104;48.642;9.008;2023-03-04T19:21:36;5.50;57.20
29007;DHT22;16104;48.642;9.008;2023-03-04T19:26:32;5.50;57.30
29007;DHT22;16104;48.642;9.008;2023-03-04T19:31:28;5.50;57.20
29007;DHT22;16104;48.642;9.008;2023-03-04T19:36:23;5.50;57.20
29007;DHT22;16104;48.642;9.008;2023-03-04T19:41:20;5.50;57.20
29007;DHT22;16104;48.642;9.008;2023-03-04T19:46:15;5.50;57.20
29007;DHT22;16104;48.642;9.008;2023-03-04T19:51:19;5.60;57.10
29007;DHT22;16104;48.642;9.008;2023-03-04T19:56:15;5.50;57.20
29007;DHT22;16104;48.642;9.008;2023-03-04T20:01:26;5.60;57.20
29007;DHT22;16104;48.642;9.008;2023-03-04T20:06:22;5.50;57.40
29007;DHT22;16104;48.642;9.008;2023-03-04T20:11:21;5.50;57.30
29007;DHT22;16104;48.642;9.008;2023-03-04T20:16:17;5.50;57.30
29007;DHT22;16104;48.642;9.008;2023-03-04T20:21:12;5.50;57.30
29007;DHT22;16104;48.642;9.008;2023-03-04T20:26:08;5.50;57.40
29007;DHT22;16104;48.642;9.008;2023-03-04T20:31:34;5.50;57.50
29007;DHT22;16104;48.642;9.008;2023-03-04T20:36:28;5.50;57.60
29007;DHT22;16104;48.642;9.008;2023-03-04T20:41:24;5.50;57.60
29007;DHT22;16104;48.642;9.008;2023-03-04T20:51:24;5.50;57.70
29007;DHT22;16104;48.642;9.008;2023-03-04T20:56:20;5.50;57.70
29007;DHT22;16104;48.642;9.008;2023-03-04T21:01:16;5.50;57.70
29007;DHT22;16104;48.642;9.008;2023-03-04T21:06:12;5.50;57.60
29007;DHT22;16104;48.642;9.008;2023-03-04T21:11:12;5.50;57.60
29007;DHT22;16104;48.642;9.008;2023-03-04T21:16:14;5.50;57.70
29007;DHT22;16104;48.642;9.008;2023-03-04T21:21:22;5.50;57.60
29007;DHT22;16104;48.642;9.008;2023-03-04T21:26:19;5.50;57.60
29007;DHT22;16104;48.642;9.008;2023-03-04T21:31:17;5.50;57.60
29007;DHT22;16104;48.642;9.008;2023-03-04T21:36:13;5.50;57.70
29007;DHT22;16104;48.642;9.008;2023-03-04T21:41:20;5.50;57.70
29007;DHT22;16104;48.642;9.008;2023-03-04T21:46:16;5.50;57.80
29007;DHT22;16104;48.642;9.008;2023-03-04T21:51:13;5.50;57.80
29007;DHT22;16104;48.642;9.008;2023-03-04T21:56:11;5.50;57.80
29007;DHT22;16104;48.642;9.008;2023-03-04T22:01:12;5.50;57.80
29007;DHT22;16104;48.642;9.008;2023-03-04T22:06:09;5.50;58.60
29007;DHT22;16104;48.642;9.008;2023-03-04T22:11:06;5.50;57.80
29007;DHT22;16104;48.642;9.008;2023-03-04T22:16:03;5.50;57.80
29007;DHT22;16104;48.642;9.008;2023-03-04T22:21:04;5.50;57.80
29007;DHT22;16104;48.642;9.008;2023-03-04T22:26:05;5.50;57.80
29007;DHT22;16104;48.642;9.008;2023-03-04T22:31:01;5.50;57.80
29007;DHT22;16104;48.642;9.008;2023-03-04T22:35:56;5.50;57.80
29007;DHT22;16104;48.642;9.008;2023-03-04T22:40:52;5.40;57.80
29007;DHT22;16104;48.642;9.008;2023-03-04T22:45:48;5.40;57.90
29007;DHT22;16104;48.642;9.008;2023-03-04T22:50:43;5.40;58.00
29007;DHT22;16104;48.642;9.008;2023-03-04T22:55:39;5.40;58.10
29007;DHT22;16104;48.642;9.008;2023-03-04T23:00:35;5.40;58.10
29007;DHT22;16104;48.642;9.008;2023-03-04T23:05:32;5.40;58.10
29007;DHT22;16104;48.642;9.008;2023-03-04T23:10:27;5.40;58.20
29007;DHT22;16104;48.642;9.008;2023-03-04T23:15:23;5.40;58.30
29007;DHT22;16104;48.642;9.008;2023-03-04T23:20:20;5.40;58.20
29007;DHT22;16104;48.642;9.008;2023-03-04T23:25:16;5.40;58.80
29007;DHT22;16104;48.642;9.008;2023-03-04T23:30:14;5.40;58.20
29007;DHT22;16104;48.642;9.008;2023-03-04T23:35:10;5.40;58.20
29007;DHT22;16104;48.642;9.008;2023-03-04T23:40:06;5.40;58.10
29007;DHT22;16104;48.642;9.008;2023-03-04T23:45:04;5.40;58.20
29007;DHT22;16104;48.642;9.008;2023-03-04T23:50:00;5.40;58.90
29007;DHT22;16104;48.642;9.008;2023-03-04T23:54:58;5.40;58.40
29007;DHT22;16104;48.642;9.008;2023-03-04T23:59:53;5.40;58.40
